sensor_id;sensor_type;location;lat;lon;timestamp;temperature;humidity
56076;DHT22;41951;49.022;12.066;2022-11-25T00:00:25;4.90;99.90
56076;DHT22;41951;49.022;12.066;2022-11-25T00:02:51;4.80;99.90
56076;DHT22;41951;49.022;12.066;2022-11-25T00:05:16;4.70;99.90
56076;DHT22;41951;49.022;12.066;2022-11-25T00:07:42;4.70;99.90
56076;DHT22;41951;49.022;12.066;2022-11-25T00:10:07;4.50;99.90
56076;DHT22;41951;49.022;12.066;2022-11-25T00:12:33;4.50;99.90
56076;DHT22;41951;49.022;12.066;2022-11-25T00:14:59;4.50;99.90
56076;DHT22;41951;49.022;12.066;2022-11-25T00:17:24;4.40;99.90
56076;DHT22;41951;49.022;12.066;2022-11-25T00:19:50;4.40;99.90
56076;DHT22;41951;49.022;12.066;2022-11-25T00:22:16;4.30;99.90
56076;DHT22;41951;49.022;12.066;2022-11-25T00:24:42;4.20;99.90
56076;DHT22;41951;49.022;12.066;2022-11-25T00:27:08;4.20;99.90
56076;DHT22;41951;49.022;12.066;2022-11-25T00:29:33;4.20;99.90
56076;DHT22;41951;49.022;12.066;2022-11-25T00:31:59;4.20;99.90
56076;DHT22;41951;49.022;12.066;2022-11-25T00:34:24;4.20;99.90
56076;DHT22;41951;49.022;12.066;2022-11-25T00:36:50;4.30;99.90
56076;DHT22;41951;49.022;12.066;2022-11-25T00:39:18;4.20;99.90
56076;DHT22;41951;49.022;12.066;2022-11-25T00:41:45;4.20;99.90
56076;DHT22;41951;49.022;12.066;2022-11-25T00:44:30;4.20;99.90
56076;DHT22;41951;49.022;12.066;2022-11-25T00:47:03;4.10;99.90
56076;DHT22;41951;49.022;12.066;2022-11-25T00:49:30;4.00;99.90
56076;DHT22;41951;49.022;12.066;2022-11-25T00:51:55;4.00;99.90
56076;DHT22;41951;49.022;12.066;2022-11-25T00:54:21;4.00;99.90
56076;DHT22;41951;49.022;12.066;2022-11-25T00:56:47;4.00;99.90
56076;DHT22;41951;49.022;12.066;2022-11-25T00:59:12;4.00;99.90
56076;DHT22;41951;49.022;12.066;2022-11-25T01:01:38;3.90;99.90
56076;DHT22;41951;49.022;12.066;2022-11-25T01:04:05;3.70;99.90
56076;DHT22;41951;49.022;12.066;2022-11-25T01:06:30;3.60;99.90
56076;DHT22;41951;49.022;12.066;2022-11-25T01:08:56;3.50;99.90
56076;DHT22;41951;49.022;12.066;2022-11-25T01:11:22;3.50;99.90
56076;DHT22;41951;49.022;12.066;2022-11-25T01:13:49;3.50;99.90
56076;DHT22;41951;49.022;12.066;2022-11-25T01:16:17;3.50;99.90
56076;DHT22;41951;49.022;12.066;2022-11-25T01:18:43;3.60;99.90
56076;DHT22;41951;49.022;12.066;2022-11-25T01:21:16;3.40;99.90
56076;DHT22;41951;49.022;12.066;2022-11-25T01:23:43;3.30;99.90
56076;DHT22;41951;49.022;12.066;2022-11-25T01:26:12;3.30;99.90
56076;DHT22;41951;49.022;12.066;2022-11-25T01:28:38;3.30;99.90
56076;DHT22;41951;49.022;12.066;2022-11-25T01:31:07;3.30;99.90
56076;DHT22;41951;49.022;12.066;2022-11-25T01:33:34;3.30;99.90
56076;DHT22;41951;49.022;12.066;2022-11-25T01:36:04;3.40;99.90
56076;DHT22;41951;49.022;12.066;2022-11-25T01:38:30;3.40;99.90
56076;DHT22;41951;49.022;12.066;2022-11-25T01:40:56;3.20;99.90
56076;DHT22;41951;49.022;12.066;2022-11-25T01:43:22;3.20;99.90
56076;DHT22;41951;49.022;12.066;2022-11-25T01:45:48;3.20;99.90
56076;DHT22;41951;49.022;12.066;2022-11-25T01:48:24;3.30;99.90
56076;DHT22;41951;49.022;12.066;2022-11-25T01:50:52;3.30;99.90
56076;DHT22;41951;49.022;12.066;2022-11-25T01:53:19;3.40;99.90
56076;DHT22;41951;49.022;12.066;2022-11-25T01:55:53;3.40;99.90
56076;DHT22;41951;49.022;12.066;2022-11-25T01:58:25;3.40;99.90
56076;DHT22;41951;49.022;12.066;2022-11-25T02:00:52;3.40;99.90
56076;DHT22;41951;49.022;12.066;2022-11-25T02:03:28;3.30;99.90
56076;DHT22;41951;49.022;12.066;2022-11-25T02:06:04;3.20;99.90
56076;DHT22;41951;49.022;12.066;2022-11-25T02:08:32;3.10;99.90
56076;DHT22;41951;49.022;12.066;2022-11-25T02:11:00;3.00;99.90
56076;DHT22;41951;49.022;12.066;2022-11-25T02:13:31;2.90;99.90
56076;DHT22;41951;49.022;12.066;2022-11-25T02:15:56;2.90;99.90
56076;DHT22;41951;49.022;12.066;2022-11-25T02:18:22;3.00;99.90
56076;DHT22;41951;49.022;12.066;2022-11-25T02:20:49;3.00;99.90
56076;DHT22;41951;49.022;12.066;2022-11-25T02:25:58;3.10;99.90
56076;DHT22;41951;49.022;12.066;2022-11-25T02:28:29;3.20;99.90
56076;DHT22;41951;49.022;12.066;2022-11-25T02:30:55;3.30;99.90
56076;DHT22;41951;49.022;12.066;2022-11-25T02:33:21;3.30;99.90
56076;DHT22;41951;49.022;12.066;2022-11-25T02:35:49;3.30;99.90
56076;DHT22;41951;49.022;12.066;2022-11-25T02:38:23;3.30;99.90
56076;DHT22;41951;49.022;12.066;2022-11-25T02:41:05;3.30;99.90
56076;DHT22;41951;49.022;12.066;2022-11-25T02:43:34;3.40;99.90
56076;DHT22;41951;49.022;12.066;2022-11-25T02:46:08;3.40;99.90
56076;DHT22;41951;49.022;12.066;2022-11-25T02:48:36;3.40;99.90
56076;DHT22;41951;49.022;12.066;2022-11-25T02:51:03;3.50;99.90
56076;DHT22;41951;49.022;12.066;2022-11-25T02:53:29;3.50;99.90
56076;DHT22;41951;49.022;12.066;2022-11-25T02:55:55;3.50;99.90
56076;DHT22;41951;49.022;12.066;2022-11-25T02:58:21;3.40;99.90
56076;DHT22;41951;49.022;12.066;2022-11-25T03:00:47;3.40;99.90
56076;DHT22;41951;49.022;12.066;2022-11-25T03:03:13;3.50;99.90
56076;DHT22;41951;49.022;12.066;2022-11-25T03:05:39;3.60;99.90
56076;DHT22;41951;49.022;12.066;2022-11-25T03:08:05;3.40;99.90
56076;DHT22;41951;49.022;12.066;2022-11-25T03:10:31;3.30;99.90
56076;DHT22;41951;49.022;12.066;2022-11-25T03:12:57;3.30;99.90
56076;DHT22;41951;49.022;12.066;2022-11-25T03:15:22;3.20;99.90
56076;DHT22;41951;49.022;12.066;2022-11-25T03:17:48;3.30;99.90
56076;DHT22;41951;49.022;12.066;2022-11-25T03:20:14;3.20;99.90
56076;DHT22;41951;49.022;12.066;2022-11-25T03:22:41;3.20;99.90
56076;DHT22;41951;49.022;12.066;2022-11-25T03:25:07;3.10;99.90
56076;DHT22;41951;49.022;12.066;2022-11-25T03:27:33;3.10;99.90
56076;DHT22;41951;49.022;12.066;2022-11-25T03:29:59;3.10;99.90
56076;DHT22;41951;49.022;12.066;2022-11-25T03:32:24;3.10;99.90
56076;DHT22;41951;49.022;12.066;2022-11-25T03:34:50;3.20;99.90
56076;DHT22;41951;49.022;12.066;2022-11-25T03:37:16;3.30;99.90
56076;DHT22;41951;49.022;12.066;2022-11-25T03:39:41;3.30;99.90
56076;DHT22;41951;49.022;12.066;2022-11-25T03:42:07;3.40;99.90
56076;DHT22;41951;49.022;12.066;2022-11-25T03:44:32;3.50;99.90
56076;DHT22;41951;49.022;12.066;2022-11-25T03:46:58;3.60;99.90
56076;DHT22;41951;49.022;12.066;2022-11-25T03:49:24;3.70;99.90
56076;DHT22;41951;49.022;12.066;2022-11-25T03:51:49;3.70;99.90
56076;DHT22;41951;49.022;12.066;2022-11-25T03:54:15;3.80;99.90
56076;DHT22;41951;49.022;12.066;2022-11-25T03:56:40;3.80;99.90
56076;DHT22;41951;49.022;12.066;2022-11-25T03:59:06;3.80;99.90
56076;DHT22;41951;49.022;12.066;2022-11-25T04:01:32;3.80;99.90
56076;DHT22;41951;49.022;12.066;2022-11-25T04:03:57;3.80;99.90
56076;DHT22;41951;49.022;12.066;2022-11-25T04:06:23;3.80;99.90
56076;DHT22;41951;49.022;12.066;2022-11-25T04:08:49;3.80;99.90
56076;DHT22;41951;49.022;12.066;2022-11-25T04:11:15;3.90;99.90
56076;DHT22;41951;49.022;12.066;2022-11-25T04:13:41;3.90;99.90
56076;DHT22;41951;49.022;12.066;2022-11-25T04:16:18;3.90;99.90
56076;DHT22;41951;49.022;12.066;2022-11-25T04:18:45;3.90;99.90
56076;DHT22;41951;49.022;12.066;2022-11-25T04:21:11;3.90;99.90
56076;DHT22;41951;49.022;12.066;2022-11-25T04:23:36;3.80;99.90
56076;DHT22;41951;49.022;12.066;2022-11-25T04:26:02;3.90;99.90
56076;DHT22;41951;49.022;12.066;2022-11-25T04:28:28;3.80;99.90
56076;DHT22;41951;49.022;12.066;2022-11-25T04:30:53;3.80;99.90
56076;DHT22;41951;49.022;12.066;2022-11-25T04:33:19;3.80;99.90
56076;DHT22;41951;49.022;12.066;2022-11-25T04:35:46;3.80;99.90
56076;DHT22;41951;49.022;12.066;2022-11-25T04:38:11;3.80;99.90
56076;DHT22;41951;49.022;12.066;2022-11-25T04:40:37;3.70;99.90
56076;DHT22;41951;49.022;12.066;2022-11-25T04:43:02;3.70;99.90
56076;DHT22;41951;49.022;12.066;2022-11-25T04:45:28;3.70;99.90
56076;DHT22;41951;49.022;12.066;2022-11-25T04:47:54;3.70;99.90
56076;DHT22;41951;49.022;12.066;2022-11-25T04:50:21;3.50;99.90
56076;DHT22;41951;49.022;12.066;2022-11-25T04:52:47;3.40;99.90
56076;DHT22;41951;49.022;12.066;2022-11-25T04:55:13;3.50;99.90
56076;DHT22;41951;49.022;12.066;2022-11-25T04:57:38;3.50;99.90
56076;DHT22;41951;49.022;12.066;2022-11-25T05:00:05;3.50;99.90
56076;DHT22;41951;49.022;12.066;2022-11-25T05:02:31;3.50;99.90
56076;DHT22;41951;49.022;12.066;2022-11-25T05:04:57;3.50;99.90
56076;DHT22;41951;49.022;12.066;2022-11-25T05:07:25;3.50;99.90
56076;DHT22;41951;49.022;12.066;2022-11-25T05:09:51;3.50;99.90
56076;DHT22;41951;49.022;12.066;2022-11-25T05:12:20;3.50;99.90
56076;DHT22;41951;49.022;12.066;2022-11-25T05:14:46;3.50;99.90
56076;DHT22;41951;49.022;12.066;2022-11-25T05:17:15;3.50;99.90
56076;DHT22;41951;49.022;12.066;2022-11-25T05:19:41;3.50;99.90
56076;DHT22;41951;49.022;12.066;2022-11-25T05:22:11;3.50;99.90
56076;DHT22;41951;49.022;12.066;2022-11-25T05:24:37;3.60;99.90
56076;DHT22;41951;49.022;12.066;2022-11-25T05:27:03;3.60;99.90
56076;DHT22;41951;49.022;12.066;2022-11-25T05:29:28;3.50;99.90
56076;DHT22;41951;49.022;12.066;2022-11-25T05:31:54;3.50;99.90
56076;DHT22;41951;49.022;12.066;2022-11-25T05:34:19;3.50;99.90
56076;DHT22;41951;49.022;12.066;2022-11-25T05:36:45;3.50;99.90
56076;DHT22;41951;49.022;12.066;2022-11-25T05:39:11;3.40;99.90
56076;DHT22;41951;49.022;12.066;2022-11-25T05:41:36;3.70;99.90
56076;DHT22;41951;49.022;12.066;2022-11-25T05:44:02;3.40;99.90
56076;DHT22;41951;49.022;12.066;2022-11-25T05:46:30;3.40;99.90
56076;DHT22;41951;49.022;12.066;2022-11-25T05:48:56;3.40;99.90
56076;DHT22;41951;49.022;12.066;2022-11-25T05:51:23;3.50;99.90
56076;DHT22;41951;49.022;12.066;2022-11-25T05:53:49;3.40;99.90
56076;DHT22;41951;49.022;12.066;2022-11-25T05:56:14;3.50;99.90
56076;DHT22;41951;49.022;12.066;2022-11-25T05:58:40;3.40;99.90
56076;DHT22;41951;49.022;12.066;2022-11-25T06:01:10;3.40;99.90
56076;DHT22;41951;49.022;12.066;2022-11-25T06:03:36;3.40;99.90
56076;DHT22;41951;49.022;12.066;2022-11-25T06:06:03;3.30;99.90
56076;DHT22;41951;49.022;12.066;2022-11-25T06:08:30;3.30;99.90
56076;DHT22;41951;49.022;12.066;2022-11-25T06:10:56;3.30;99.90
56076;DHT22;41951;49.022;12.066;2022-11-25T06:13:21;3.30;99.90
56076;DHT22;41951;49.022;12.066;2022-11-25T06:15:47;3.40;99.90
56076;DHT22;41951;49.022;12.066;2022-11-25T06:18:14;4.50;99.90
56076;DHT22;41951;49.022;12.066;2022-11-25T06:20:41;3.40;99.90
56076;DHT22;41951;49.022;12.066;2022-11-25T06:23:07;3.40;99.90
56076;DHT22;41951;49.022;12.066;2022-11-25T06:25:33;3.40;99.90
56076;DHT22;41951;49.022;12.066;2022-11-25T06:27:59;3.40;99.90
56076;DHT22;41951;49.022;12.066;2022-11-25T06:30:26;3.40;99.90
56076;DHT22;41951;49.022;12.066;2022-11-25T06:32:53;3.50;99.90
56076;DHT22;41951;49.022;12.066;2022-11-25T06:35:19;3.50;99.90
56076;DHT22;41951;49.022;12.066;2022-11-25T06:37:45;3.50;99.90
56076;DHT22;41951;49.022;12.066;2022-11-25T06:40:11;3.50;99.90
56076;DHT22;41951;49.022;12.066;2022-11-25T06:42:37;3.50;99.90
56076;DHT22;41951;49.022;12.066;2022-11-25T06:45:04;3.50;99.90
56076;DHT22;41951;49.022;12.066;2022-11-25T06:47:30;3.50;99.90
56076;DHT22;41951;49.022;12.066;2022-11-25T06:49:55;3.50;99.90
56076;DHT22;41951;49.022;12.066;2022-11-25T06:52:21;3.50;99.90
56076;DHT22;41951;49.022;12.066;2022-11-25T06:54:46;3.40;99.90
56076;DHT22;41951;49.022;12.066;2022-11-25T06:57:16;3.40;99.90
56076;DHT22;41951;49.022;12.066;2022-11-25T06:59:41;3.40;99.90
56076;DHT22;41951;49.022;12.066;2022-11-25T07:02:10;3.40;99.90
56076;DHT22;41951;49.022;12.066;2022-11-25T07:04:37;3.40;99.90
56076;DHT22;41951;49.022;12.066;2022-11-25T07:07:03;3.30;99.90
56076;DHT22;41951;49.022;12.066;2022-11-25T07:09:29;3.20;99.90
56076;DHT22;41951;49.022;12.066;2022-11-25T07:11:55;3.10;99.90
56076;DHT22;41951;49.022;12.066;2022-11-25T07:14:20;3.10;99.90
56076;DHT22;41951;49.022;12.066;2022-11-25T07:16:46;3.20;99.90
56076;DHT22;41951;49.022;12.066;2022-11-25T07:19:14;3.20;99.90
56076;DHT22;41951;49.022;12.066;2022-11-25T07:21:40;3.10;99.90
56076;DHT22;41951;49.022;12.066;2022-11-25T07:24:09;3.20;99.90
56076;DHT22;41951;49.022;12.066;2022-11-25T07:26:36;3.10;99.90
56076;DHT22;41951;49.022;12.066;2022-11-25T07:29:11;3.20;99.90
56076;DHT22;41951;49.022;12.066;2022-11-25T07:31:39;3.20;99.90
56076;DHT22;41951;49.022;12.066;2022-11-25T07:34:17;3.20;99.90
56076;DHT22;41951;49.022;12.066;2022-11-25T07:36:45;3.20;99.90
56076;DHT22;41951;49.022;12.066;2022-11-25T07:39:16;3.30;99.90
56076;DHT22;41951;49.022;12.066;2022-11-25T07:41:42;3.30;99.90
56076;DHT22;41951;49.022;12.066;2022-11-25T07:44:09;3.30;99.90
56076;DHT22;41951;49.022;12.066;2022-11-25T07:46:38;3.30;99.90
56076;DHT22;41951;49.022;12.066;2022-11-25T07:49:06;3.30;99.90
56076;DHT22;41951;49.022;12.066;2022-11-25T07:51:35;3.30;99.90
56076;DHT22;41951;49.022;12.066;2022-11-25T07:54:03;3.30;99.90
56076;DHT22;41951;49.022;12.066;2022-11-25T07:56:29;3.30;99.90
56076;DHT22;41951;49.022;12.066;2022-11-25T07:58:56;3.30;99.90
56076;DHT22;41951;49.022;12.066;2022-11-25T08:01:22;3.40;99.90
56076;DHT22;41951;49.022;12.066;2022-11-25T08:03:49;3.40;99.90
56076;DHT22;41951;49.022;12.066;2022-11-25T08:06:26;3.40;99.90
56076;DHT22;41951;49.022;12.066;2022-11-25T08:08:53;3.40;99.90
56076;DHT22;41951;49.022;12.066;2022-11-25T08:11:28;3.50;99.90
56076;DHT22;41951;49.022;12.066;2022-11-25T08:13:55;3.50;99.90
56076;DHT22;41951;49.022;12.066;2022-11-25T08:16:23;3.50;99.90
56076;DHT22;41951;49.022;12.066;2022-11-25T08:18:49;3.50;99.90
56076;DHT22;41951;49.022;12.066;2022-11-25T08:21:16;3.70;99.90
56076;DHT22;41951;49.022;12.066;2022-11-25T08:23:43;3.60;99.90
56076;DHT22;41951;49.022;12.066;2022-11-25T08:26:23;3.70;99.90
56076;DHT22;41951;49.022;12.066;2022-11-25T08:28:51;3.60;99.90
56076;DHT22;41951;49.022;12.066;2022-11-25T08:31:20;3.70;99.90
56076;DHT22;41951;49.022;12.066;2022-11-25T08:33:47;3.70;99.90
56076;DHT22;41951;49.022;12.066;2022-11-25T08:36:13;3.70;99.90
56076;DHT22;41951;49.022;12.066;2022-11-25T08:38:40;3.70;99.90
56076;DHT22;41951;49.022;12.066;2022-11-25T08:41:14;3.60;99.90
56076;DHT22;41951;49.022;12.066;2022-11-25T08:43:40;3.70;99.90
56076;DHT22;41951;49.022;12.066;2022-11-25T08:46:11;3.70;99.90
56076;DHT22;41951;49.022;12.066;2022-11-25T08:48:38;3.70;99.90
56076;DHT22;41951;49.022;12.066;2022-11-25T08:51:20;3.70;99.90
56076;DHT22;41951;49.022;12.066;2022-11-25T08:53:47;3.80;99.90
56076;DHT22;41951;49.022;12.066;2022-11-25T08:56:15;3.90;99.90
56076;DHT22;41951;49.022;12.066;2022-11-25T08:58:41;3.90;99.90
56076;DHT22;41951;49.022;12.066;2022-11-25T09:01:07;3.90;99.90
56076;DHT22;41951;49.022;12.066;2022-11-25T09:03:35;4.00;99.90
56076;DHT22;41951;49.022;12.066;2022-11-25T09:06:02;4.00;99.90
56076;DHT22;41951;49.022;12.066;2022-11-25T09:08:28;4.00;99.90
56076;DHT22;41951;49.022;12.066;2022-11-25T09:10:56;4.00;99.90
56076;DHT22;41951;49.022;12.066;2022-11-25T09:13:21;4.00;99.90
56076;DHT22;41951;49.022;12.066;2022-11-25T09:15:47;4.10;99.90
56076;DHT22;41951;49.022;12.066;2022-11-25T09:18:13;4.00;99.90
56076;DHT22;41951;49.022;12.066;2022-11-25T09:20:40;4.00;99.90
56076;DHT22;41951;49.022;12.066;2022-11-25T09:23:06;4.00;99.90
56076;DHT22;41951;49.022;12.066;2022-11-25T09:25:33;4.00;99.90
56076;DHT22;41951;49.022;12.066;2022-11-25T09:27:59;4.00;99.90
56076;DHT22;41951;49.022;12.066;2022-11-25T09:30:24;4.00;99.90
56076;DHT22;41951;49.022;12.066;2022-11-25T09:32:52;4.00;99.90
56076;DHT22;41951;49.022;12.066;2022-11-25T09:35:18;3.90;99.90
56076;DHT22;41951;49.022;12.066;2022-11-25T09:37:44;3.90;99.90
56076;DHT22;41951;49.022;12.066;2022-11-25T09:40:26;3.90;99.90
56076;DHT22;41951;49.022;12.066;2022-11-25T09:48:59;4.00;99.90
56076;DHT22;41951;49.022;12.066;2022-11-25T09:51:43;4.00;99.90
56076;DHT22;41951;49.022;12.066;2022-11-25T09:54:20;4.10;99.90
56076;DHT22;41951;49.022;12.066;2022-11-25T09:56:53;4.10;99.90
56076;DHT22;41951;49.022;12.066;2022-11-25T09:59:30;4.10;99.90
56076;DHT22;41951;49.022;12.066;2022-11-25T10:02:02;4.10;99.90
56076;DHT22;41951;49.022;12.066;2022-11-25T10:05:03;4.10;99.90
56076;DHT22;41951;49.022;12.066;2022-11-25T10:07:45;4.20;99.90
56076;DHT22;41951;49.022;12.066;2022-11-25T10:10:21;4.20;99.90
56076;DHT22;41951;49.022;12.066;2022-11-25T10:12:48;4.40;99.90
56076;DHT22;41951;49.022;12.066;2022-11-25T10:15:20;4.40;99.90
56076;DHT22;41951;49.022;12.066;2022-11-25T10:17:49;4.40;99.90
56076;DHT22;41951;49.022;12.066;2022-11-25T10:23:11;4.50;99.90
56076;DHT22;41951;49.022;12.066;2022-11-25T10:25:47;5.10;99.90
56076;DHT22;41951;49.022;12.066;2022-11-25T10:28:21;4.70;99.90
56076;DHT22;41951;49.022;12.066;2022-11-25T10:33:37;4.70;99.90
56076;DHT22;41951;49.022;12.066;2022-11-25T10:36:24;4.70;99.90
56076;DHT22;41951;49.022;12.066;2022-11-25T10:39:02;4.80;99.90
56076;DHT22;41951;49.022;12.066;2022-11-25T10:41:36;4.90;99.90
56076;DHT22;41951;49.022;12.066;2022-11-25T10:44:02;4.90;99.90
56076;DHT22;41951;49.022;12.066;2022-11-25T10:46:47;4.90;99.90
56076;DHT22;41951;49.022;12.066;2022-11-25T10:49:26;5.00;99.90
56076;DHT22;41951;49.022;12.066;2022-11-25T10:51:54;5.00;99.90
56076;DHT22;41951;49.022;12.066;2022-11-25T10:54:26;5.10;99.90
56076;DHT22;41951;49.022;12.066;2022-11-25T10:56:58;5.10;99.90
56076;DHT22;41951;49.022;12.066;2022-11-25T10:59:36;5.20;99.90
56076;DHT22;41951;49.022;12.066;2022-11-25T11:02:18;5.20;99.90
56076;DHT22;41951;49.022;12.066;2022-11-25T11:05:00;5.30;99.90
56076;DHT22;41951;49.022;12.066;2022-11-25T11:07:32;5.20;99.90
56076;DHT22;41951;49.022;12.066;2022-11-25T11:12:52;5.20;99.90
56076;DHT22;41951;49.022;12.066;2022-11-25T11:15:21;5.20;99.90
56076;DHT22;41951;49.022;12.066;2022-11-25T11:17:48;5.30;99.90
56076;DHT22;41951;49.022;12.066;2022-11-25T11:20:28;5.30;99.90
56076;DHT22;41951;49.022;12.066;2022-11-25T11:23:00;5.30;99.90
56076;DHT22;41951;49.022;12.066;2022-11-25T11:25:35;5.30;99.90
56076;DHT22;41951;49.022;12.066;2022-11-25T11:28:02;5.40;99.90
56076;DHT22;41951;49.022;12.066;2022-11-25T11:42:17;5.40;99.90
56076;DHT22;41951;49.022;12.066;2022-11-25T11:45:13;5.40;99.90
56076;DHT22;41951;49.022;12.066;2022-11-25T11:48:20;5.40;99.90
56076;DHT22;41951;49.022;12.066;2022-11-25T11:50:52;5.60;99.90
56076;DHT22;41951;49.022;12.066;2022-11-25T11:53:29;5.60;99.90
56076;DHT22;41951;49.022;12.066;2022-11-25T11:56:12;5.60;99.90
56076;DHT22;41951;49.022;12.066;2022-11-25T12:04:20;5.70;99.90
56076;DHT22;41951;49.022;12.066;2022-11-25T12:07:10;5.80;99.90
56076;DHT22;41951;49.022;12.066;2022-11-25T12:09:47;5.90;99.90
56076;DHT22;41951;49.022;12.066;2022-11-25T12:12:17;5.80;99.90
56076;DHT22;41951;49.022;12.066;2022-11-25T12:14:52;5.80;99.90
56076;DHT22;41951;49.022;12.066;2022-11-25T12:17:41;5.80;99.90
56076;DHT22;41951;49.022;12.066;2022-11-25T12:20:30;5.80;99.90
56076;DHT22;41951;49.022;12.066;2022-11-25T12:23:05;5.80;99.90
56076;DHT22;41951;49.022;12.066;2022-11-25T12:25:37;5.80;99.90
56076;DHT22;41951;49.022;12.066;2022-11-25T12:28:14;5.80;99.90
56076;DHT22;41951;49.022;12.066;2022-11-25T12:31:05;5.80;99.90
56076;DHT22;41951;49.022;12.066;2022-11-25T12:33:43;5.80;99.90
56076;DHT22;41951;49.022;12.066;2022-11-25T12:36:27;5.80;99.90
56076;DHT22;41951;49.022;12.066;2022-11-25T12:39:18;5.80;99.90
56076;DHT22;41951;49.022;12.066;2022-11-25T12:41:58;5.90;99.90
56076;DHT22;41951;49.022;12.066;2022-11-25T12:44:56;6.00;99.90
56076;DHT22;41951;49.022;12.066;2022-11-25T12:47:22;6.00;99.90
56076;DHT22;41951;49.022;12.066;2022-11-25T12:49:50;6.00;99.90
56076;DHT22;41951;49.022;12.066;2022-11-25T13:00:19;6.10;99.90
56076;DHT22;41951;49.022;12.066;2022-11-25T13:14:11;6.10;99.90
56076;DHT22;41951;49.022;12.066;2022-11-25T13:16:38;6.10;99.90
56076;DHT22;41951;49.022;12.066;2022-11-25T13:19:08;6.00;99.90
56076;DHT22;41951;49.022;12.066;2022-11-25T13:22:00;6.00;99.90
56076;DHT22;41951;49.022;12.066;2022-11-25T13:24:38;6.00;99.90
56076;DHT22;41951;49.022;12.066;2022-11-25T13:27:05;5.90;99.90
56076;DHT22;41951;49.022;12.066;2022-11-25T13:29:54;5.90;99.90
56076;DHT22;41951;49.022;12.066;2022-11-25T13:32:34;5.90;99.90
56076;DHT22;41951;49.022;12.066;2022-11-25T13:37:50;6.00;99.90
56076;DHT22;41951;49.022;12.066;2022-11-25T13:42:49;5.90;99.90
56076;DHT22;41951;49.022;12.066;2022-11-25T13:45:41;5.90;99.90
56076;DHT22;41951;49.022;12.066;2022-11-25T13:48:26;6.00;99.90
56076;DHT22;41951;49.022;12.066;2022-11-25T13:51:21;6.00;99.90
56076;DHT22;41951;49.022;12.066;2022-11-25T13:53:59;6.00;99.90
56076;DHT22;41951;49.022;12.066;2022-11-25T13:56:31;6.00;99.90
56076;DHT22;41951;49.022;12.066;2022-11-25T14:04:12;6.00;99.90
56076;DHT22;41951;49.022;12.066;2022-11-25T14:09:09;6.00;99.90
56076;DHT22;41951;49.022;12.066;2022-11-25T14:14:19;6.00;99.90
56076;DHT22;41951;49.022;12.066;2022-11-25T14:17:05;6.00;99.90
56076;DHT22;41951;49.022;12.066;2022-11-25T14:22:38;6.00;99.90
56076;DHT22;41951;49.022;12.066;2022-11-25T14:25:20;6.00;99.90
56076;DHT22;41951;49.022;12.066;2022-11-25T14:27:49;6.00;99.90
56076;DHT22;41951;49.022;12.066;2022-11-25T14:30:17;5.90;99.90
56076;DHT22;41951;49.022;12.066;2022-11-25T14:32:44;5.90;99.90
56076;DHT22;41951;49.022;12.066;2022-11-25T14:35:13;5.90;99.90
56076;DHT22;41951;49.022;12.066;2022-11-25T14:40:17;5.90;99.90
56076;DHT22;41951;49.022;12.066;2022-11-25T14:42:47;5.90;99.90
56076;DHT22;41951;49.022;12.066;2022-11-25T14:47:46;5.90;99.90
56076;DHT22;41951;49.022;12.066;2022-11-25T14:50:14;5.90;99.90
56076;DHT22;41951;49.022;12.066;2022-11-25T14:52:40;6.00;99.90
56076;DHT22;41951;49.022;12.066;2022-11-25T14:55:09;6.00;99.90
56076;DHT22;41951;49.022;12.066;2022-11-25T14:57:37;5.90;99.90
56076;DHT22;41951;49.022;12.066;2022-11-25T15:00:05;5.90;99.90
56076;DHT22;41951;49.022;12.066;2022-11-25T15:02:34;5.90;99.90
56076;DHT22;41951;49.022;12.066;2022-11-25T15:05:22;5.90;99.90
56076;DHT22;41951;49.022;12.066;2022-11-25T15:08:14;5.90;99.90
56076;DHT22;41951;49.022;12.066;2022-11-25T15:10:55;5.90;99.90
56076;DHT22;41951;49.022;12.066;2022-11-25T15:13:23;5.90;99.90
56076;DHT22;41951;49.022;12.066;2022-11-25T15:15:51;5.90;99.90
56076;DHT22;41951;49.022;12.066;2022-11-25T15:18:20;5.90;99.90
56076;DHT22;41951;49.022;12.066;2022-11-25T15:20:49;5.80;99.90
56076;DHT22;41951;49.022;12.066;2022-11-25T15:23:21;5.90;99.90
56076;DHT22;41951;49.022;12.066;2022-11-25T15:25:50;5.90;99.90
56076;DHT22;41951;49.022;12.066;2022-11-25T15:28:16;5.90;99.90
56076;DHT22;41951;49.022;12.066;2022-11-25T15:30:41;5.90;99.90
56076;DHT22;41951;49.022;12.066;2022-11-25T15:33:19;5.90;99.90
56076;DHT22;41951;49.022;12.066;2022-11-25T15:35:46;5.90;99.90
56076;DHT22;41951;49.022;12.066;2022-11-25T15:38:33;5.90;99.90
56076;DHT22;41951;49.022;12.066;2022-11-25T15:41:00;5.90;99.90
56076;DHT22;41951;49.022;12.066;2022-11-25T15:43:28;5.90;99.90
56076;DHT22;41951;49.022;12.066;2022-11-25T15:45:58;5.90;99.90
56076;DHT22;41951;49.022;12.066;2022-11-25T15:48:43;5.90;99.90
56076;DHT22;41951;49.022;12.066;2022-11-25T15:56:26;5.90;99.90
56076;DHT22;41951;49.022;12.066;2022-11-25T15:58:52;5.80;99.90
56076;DHT22;41951;49.022;12.066;2022-11-25T16:03:44;5.80;99.90
56076;DHT22;41951;49.022;12.066;2022-11-25T16:06:22;5.80;99.90
56076;DHT22;41951;49.022;12.066;2022-11-25T16:09:00;5.80;99.90
56076;DHT22;41951;49.022;12.066;2022-11-25T16:11:27;5.80;99.90
56076;DHT22;41951;49.022;12.066;2022-11-25T16:14:25;5.70;99.90
56076;DHT22;41951;49.022;12.066;2022-11-25T16:17:03;5.70;99.90
56076;DHT22;41951;49.022;12.066;2022-11-25T16:19:37;5.70;99.90
56076;DHT22;41951;49.022;12.066;2022-11-25T16:22:04;5.70;99.90
56076;DHT22;41951;49.022;12.066;2022-11-25T16:24:39;5.60;99.90
56076;DHT22;41951;49.022;12.066;2022-11-25T16:27:18;5.70;99.90
56076;DHT22;41951;49.022;12.066;2022-11-25T16:29:51;5.70;99.90
56076;DHT22;41951;49.022;12.066;2022-11-25T16:32:20;5.70;99.90
56076;DHT22;41951;49.022;12.066;2022-11-25T16:34:46;5.70;99.90
56076;DHT22;41951;49.022;12.066;2022-11-25T16:37:12;5.70;99.90
56076;DHT22;41951;49.022;12.066;2022-11-25T16:39:37;5.60;99.90
56076;DHT22;41951;49.022;12.066;2022-11-25T16:42:03;5.60;99.90
56076;DHT22;41951;49.022;12.066;2022-11-25T16:44:32;5.60;99.90
56076;DHT22;41951;49.022;12.066;2022-11-25T16:46:58;5.80;99.90
56076;DHT22;41951;49.022;12.066;2022-11-25T16:49:24;5.60;99.90
56076;DHT22;41951;49.022;12.066;2022-11-25T16:51:51;5.60;99.90
56076;DHT22;41951;49.022;12.066;2022-11-25T16:54:18;5.60;99.90
56076;DHT22;41951;49.022;12.066;2022-11-25T16:56:46;5.50;99.90
56076;DHT22;41951;49.022;12.066;2022-11-25T16:59:28;5.50;99.90
56076;DHT22;41951;49.022;12.066;2022-11-25T17:01:54;5.60;99.90
56076;DHT22;41951;49.022;12.066;2022-11-25T17:04:20;5.60;99.90
56076;DHT22;41951;49.022;12.066;2022-11-25T17:06:47;5.60;99.90
56076;DHT22;41951;49.022;12.066;2022-11-25T17:09:13;5.60;99.90
56076;DHT22;41951;49.022;12.066;2022-11-25T17:11:42;5.50;99.90